sensor_id;sensor_type;location;lat;lon;timestamp;P1;durP1;ratioP1;P2;durP2;ratioP2
45812;SDS011;31519;45.408;10.962;2023-05-07T00:00:27;18.27;;;10.77;;
45812;SDS011;31519;45.408;10.962;2023-05-07T00:03:16;16.08;;;10.73;;
45812;SDS011;31519;45.408;10.962;2023-05-07T00:05:44;16.70;;;10.65;;
45812;SDS011;31519;45.408;10.962;2023-05-07T00:08:12;18.38;;;10.18;;
45812;SDS011;31519;45.408;10.962;2023-05-07T00:10:40;15.82;;;10.68;;
45812;SDS011;31519;45.408;10.962;2023-05-07T00:13:08;20.13;;;10.75;;
45812;SDS011;31519;45.408;10.962;2023-05-07T00:15:36;14.68;;;11.05;;
45812;SDS011;31519;45.408;10.962;2023-05-07T00:18:04;12.30;;;10.18;;
45812;SDS011;31519;45.408;10.962;2023-05-07T00:20:33;18.67;;;11.18;;
45812;SDS011;31519;45.408;10.962;2023-05-07T00:23:03;15.57;;;10.23;;
45812;SDS011;31519;45.408;10.962;2023-05-07T00:25:31;19.05;;;10.80;;
45812;SDS011;31519;45.408;10.962;2023-05-07T00:27:59;14.88;;;10.55;;
45812;SDS011;31519;45.408;10.962;2023-05-07T00:30:31;17.02;;;11.95;;
45812;SDS011;31519;45.408;10.962;2023-05-07T00:32:59;14.20;;;11.93;;
45812;SDS011;31519;45.408;10.962;2023-05-07T00:35:28;17.63;;;12.82;;
45812;SDS011;31519;45.408;10.962;2023-05-07T00:37:57;19.70;;;12.77;;
45812;SDS011;31519;45.408;10.962;2023-05-07T00:40:25;17.85;;;12.98;;
45812;SDS011;31519;45.408;10.962;2023-05-07T00:42:53;19.80;;;14.35;;
45812;SDS011;31519;45.408;10.962;2023-05-07T00:45:29;23.15;;;14.68;;
45812;SDS011;31519;45.408;10.962;2023-05-07T00:47:58;20.90;;;14.27;;
45812;SDS011;31519;45.408;10.962;2023-05-07T00:50:28;26.38;;;14.13;;
45812;SDS011;31519;45.408;10.962;2023-05-07T00:52:57;18.75;;;14.65;;
45812;SDS011;31519;45.408;10.962;2023-05-07T00:55:26;34.78;;;14.85;;
45812;SDS011;31519;45.408;10.962;2023-05-07T00:57:54;20.25;;;13.80;;
45812;SDS011;31519;45.408;10.962;2023-05-07T01:00:22;23.58;;;13.73;;
45812;SDS011;31519;45.408;10.962;2023-05-07T01:02:52;26.90;;;14.43;;
45812;SDS011;31519;45.408;10.962;2023-05-07T01:05:20;28.48;;;13.50;;
45812;SDS011;31519;45.408;10.962;2023-05-07T01:07:51;28.17;;;14.60;;
45812;SDS011;31519;45.408;10.962;2023-05-07T01:10:22;19.52;;;14.05;;
45812;SDS011;31519;45.408;10.962;2023-05-07T01:12:52;20.52;;;14.10;;
45812;SDS011;31519;45.408;10.962;2023-05-07T01:15:21;22.88;;;15.80;;
45812;SDS011;31519;45.408;10.962;2023-05-07T01:17:51;24.17;;;14.32;;
45812;SDS011;31519;45.408;10.962;2023-05-07T01:20:25;20.27;;;13.90;;
45812;SDS011;31519;45.408;10.962;2023-05-07T01:22:56;14.85;;;12.73;;
45812;SDS011;31519;45.408;10.962;2023-05-07T01:25:25;16.45;;;13.63;;
45812;SDS011;31519;45.408;10.962;2023-05-07T01:27:56;19.10;;;13.48;;
45812;SDS011;31519;45.408;10.962;2023-05-07T01:30:29;19.77;;;13.05;;
45812;SDS011;31519;45.408;10.962;2023-05-07T01:35:39;24.23;;;13.77;;
45812;SDS011;31519;45.408;10.962;2023-05-07T01:38:11;17.30;;;13.32;;
45812;SDS011;31519;45.408;10.962;2023-05-07T01:40:39;17.40;;;14.05;;
45812;SDS011;31519;45.408;10.962;2023-05-07T01:43:08;18.25;;;14.32;;
45812;SDS011;31519;45.408;10.962;2023-05-07T01:45:37;19.83;;;14.02;;
45812;SDS011;31519;45.408;10.962;2023-05-07T01:48:07;18.63;;;14.98;;
45812;SDS011;31519;45.408;10.962;2023-05-07T01:50:37;21.40;;;14.25;;
45812;SDS011;31519;45.408;10.962;2023-05-07T01:53:05;22.52;;;15.20;;
45812;SDS011;31519;45.408;10.962;2023-05-07T01:55:33;20.98;;;14.15;;
45812;SDS011;31519;45.408;10.962;2023-05-07T01:58:01;19.67;;;14.45;;
45812;SDS011;31519;45.408;10.962;2023-05-07T02:00:29;17.15;;;14.15;;
45812;SDS011;31519;45.408;10.962;2023-05-07T02:02:57;21.40;;;14.55;;
45812;SDS011;31519;45.408;10.962;2023-05-07T02:05:37;24.42;;;14.30;;
45812;SDS011;31519;45.408;10.962;2023-05-07T02:08:15;17.58;;;14.82;;
45812;SDS011;31519;45.408;10.962;2023-05-07T02:10:43;20.92;;;14.98;;
45812;SDS011;31519;45.408;10.962;2023-05-07T02:13:11;18.25;;;14.48;;
45812;SDS011;31519;45.408;10.962;2023-05-07T02:15:39;21.70;;;13.95;;
45812;SDS011;31519;45.408;10.962;2023-05-07T02:18:09;20.67;;;15.00;;
45812;SDS011;31519;45.408;10.962;2023-05-07T02:20:37;20.45;;;14.23;;
45812;SDS011;31519;45.408;10.962;2023-05-07T02:23:06;22.42;;;14.68;;
45812;SDS011;31519;45.408;10.962;2023-05-07T02:25:34;21.70;;;14.82;;
45812;SDS011;31519;45.408;10.962;2023-05-07T02:28:03;21.77;;;14.13;;
45812;SDS011;31519;45.408;10.962;2023-05-07T02:30:40;24.83;;;14.85;;
45812;SDS011;31519;45.408;10.962;2023-05-07T02:33:10;19.02;;;14.75;;
45812;SDS011;31519;45.408;10.962;2023-05-07T02:35:40;18.92;;;14.15;;
45812;SDS011;31519;45.408;10.962;2023-05-07T02:38:10;19.00;;;13.93;;
45812;SDS011;31519;45.408;10.962;2023-05-07T02:40:40;22.88;;;14.88;;
45812;SDS011;31519;45.408;10.962;2023-05-07T02:43:08;23.95;;;14.15;;
45812;SDS011;31519;45.408;10.962;2023-05-07T02:45:39;18.05;;;14.43;;
45812;SDS011;31519;45.408;10.962;2023-05-07T02:48:09;21.48;;;15.32;;
45812;SDS011;31519;45.408;10.962;2023-05-07T02:50:37;20.98;;;14.48;;
45812;SDS011;31519;45.408;10.962;2023-05-07T02:53:05;24.85;;;15.23;;
45812;SDS011;31519;45.408;10.962;2023-05-07T02:55:33;20.33;;;14.48;;
45812;SDS011;31519;45.408;10.962;2023-05-07T02:58:01;17.98;;;14.65;;
45812;SDS011;31519;45.408;10.962;2023-05-07T03:00:34;25.63;;;15.68;;
45812;SDS011;31519;45.408;10.962;2023-05-07T03:03:15;22.33;;;16.00;;
45812;SDS011;31519;45.408;10.962;2023-05-07T03:05:43;23.95;;;16.75;;
45812;SDS011;31519;45.408;10.962;2023-05-07T03:08:12;19.50;;;14.82;;
45812;SDS011;31519;45.408;10.962;2023-05-07T03:10:40;24.70;;;15.98;;
45812;SDS011;31519;45.408;10.962;2023-05-07T03:13:08;27.50;;;15.40;;
45812;SDS011;31519;45.408;10.962;2023-05-07T03:15:37;23.35;;;16.67;;
45812;SDS011;31519;45.408;10.962;2023-05-07T03:18:05;22.52;;;16.25;;
45812;SDS011;31519;45.408;10.962;2023-05-07T03:20:34;21.77;;;15.40;;
45812;SDS011;31519;45.408;10.962;2023-05-07T03:23:04;26.67;;;15.98;;
45812;SDS011;31519;45.408;10.962;2023-05-07T03:25:32;21.52;;;15.00;;
45812;SDS011;31519;45.408;10.962;2023-05-07T03:28:02;19.60;;;15.32;;
45812;SDS011;31519;45.408;10.962;2023-05-07T03:30:38;18.50;;;15.38;;
45812;SDS011;31519;45.408;10.962;2023-05-07T03:33:07;27.35;;;15.10;;
45812;SDS011;31519;45.408;10.962;2023-05-07T03:35:35;24.35;;;17.02;;
45812;SDS011;31519;45.408;10.962;2023-05-07T03:38:05;18.25;;;14.95;;
45812;SDS011;31519;45.408;10.962;2023-05-07T03:40:36;22.55;;;15.73;;
45812;SDS011;31519;45.408;10.962;2023-05-07T03:43:05;20.23;;;14.63;;
45812;SDS011;31519;45.408;10.962;2023-05-07T03:45:37;20.25;;;15.10;;
45812;SDS011;31519;45.408;10.962;2023-05-07T03:48:14;24.63;;;17.20;;
45812;SDS011;31519;45.408;10.962;2023-05-07T03:50:43;21.02;;;14.93;;
45812;SDS011;31519;45.408;10.962;2023-05-07T03:53:11;21.42;;;16.20;;
45812;SDS011;31519;45.408;10.962;2023-05-07T03:55:39;18.30;;;15.48;;
45812;SDS011;31519;45.408;10.962;2023-05-07T03:58:07;25.30;;;16.83;;
45812;SDS011;31519;45.408;10.962;2023-05-07T04:00:36;22.08;;;16.38;;
45812;SDS011;31519;45.408;10.962;2023-05-07T04:03:17;24.70;;;16.42;;
45812;SDS011;31519;45.408;10.962;2023-05-07T04:05:45;22.33;;;16.77;;
45812;SDS011;31519;45.408;10.962;2023-05-07T04:08:14;28.75;;;17.00;;
45812;SDS011;31519;45.408;10.962;2023-05-07T04:10:46;28.05;;;16.80;;
45812;SDS011;31519;45.408;10.962;2023-05-07T04:13:15;29.50;;;16.27;;
45812;SDS011;31519;45.408;10.962;2023-05-07T04:15:43;23.10;;;17.88;;
45812;SDS011;31519;45.408;10.962;2023-05-07T04:18:16;33.58;;;17.08;;
45812;SDS011;31519;45.408;10.962;2023-05-07T04:20:46;25.60;;;17.02;;
45812;SDS011;31519;45.408;10.962;2023-05-07T04:23:17;20.00;;;15.38;;
45812;SDS011;31519;45.408;10.962;2023-05-07T04:25:45;24.88;;;16.30;;
45812;SDS011;31519;45.408;10.962;2023-05-07T04:28:22;22.63;;;17.00;;
45812;SDS011;31519;45.408;10.962;2023-05-07T04:30:50;22.80;;;15.82;;
45812;SDS011;31519;45.408;10.962;2023-05-07T04:33:20;23.40;;;18.02;;
45812;SDS011;31519;45.408;10.962;2023-05-07T04:35:50;26.75;;;16.05;;
45812;SDS011;31519;45.408;10.962;2023-05-07T04:38:19;35.45;;;19.85;;
45812;SDS011;31519;45.408;10.962;2023-05-07T04:40:50;35.17;;;22.80;;
45812;SDS011;31519;45.408;10.962;2023-05-07T04:43:22;32.78;;;23.20;;
45812;SDS011;31519;45.408;10.962;2023-05-07T04:45:51;39.22;;;25.83;;
45812;SDS011;31519;45.408;10.962;2023-05-07T04:48:22;43.17;;;29.02;;
45812;SDS011;31519;45.408;10.962;2023-05-07T04:50:51;34.63;;;25.00;;
45812;SDS011;31519;45.408;10.962;2023-05-07T04:53:22;40.53;;;26.98;;
45812;SDS011;31519;45.408;10.962;2023-05-07T04:55:55;41.45;;;27.40;;
45812;SDS011;31519;45.408;10.962;2023-05-07T04:58:29;36.60;;;25.25;;
45812;SDS011;31519;45.408;10.962;2023-05-07T05:01:00;33.08;;;24.58;;
45812;SDS011;31519;45.408;10.962;2023-05-07T05:03:29;34.60;;;24.77;;
45812;SDS011;31519;45.408;10.962;2023-05-07T05:05:58;34.05;;;23.38;;
45812;SDS011;31519;45.408;10.962;2023-05-07T05:08:31;30.88;;;22.05;;
45812;SDS011;31519;45.408;10.962;2023-05-07T05:11:01;35.38;;;22.70;;
45812;SDS011;31519;45.408;10.962;2023-05-07T05:13:33;35.42;;;21.75;;
45812;SDS011;31519;45.408;10.962;2023-05-07T05:16:06;28.05;;;21.60;;
45812;SDS011;31519;45.408;10.962;2023-05-07T05:18:36;44.75;;;22.27;;
45812;SDS011;31519;45.408;10.962;2023-05-07T05:21:04;30.08;;;21.02;;
45812;SDS011;31519;45.408;10.962;2023-05-07T05:23:33;29.00;;;20.10;;
45812;SDS011;31519;45.408;10.962;2023-05-07T05:26:01;27.88;;;19.20;;
45812;SDS011;31519;45.408;10.962;2023-05-07T05:28:32;23.20;;;18.33;;
45812;SDS011;31519;45.408;10.962;2023-05-07T05:31:02;28.52;;;18.30;;
45812;SDS011;31519;45.408;10.962;2023-05-07T05:33:33;29.67;;;19.55;;
45812;SDS011;31519;45.408;10.962;2023-05-07T05:36:05;24.88;;;17.25;;
45812;SDS011;31519;45.408;10.962;2023-05-07T05:38:35;28.25;;;18.08;;
45812;SDS011;31519;45.408;10.962;2023-05-07T05:41:03;29.92;;;19.30;;
45812;SDS011;31519;45.408;10.962;2023-05-07T05:43:31;27.20;;;18.58;;
45812;SDS011;31519;45.408;10.962;2023-05-07T05:45:59;23.80;;;17.85;;
45812;SDS011;31519;45.408;10.962;2023-05-07T05:48:30;29.83;;;18.02;;
45812;SDS011;31519;45.408;10.962;2023-05-07T05:51:00;30.27;;;18.65;;
45812;SDS011;31519;45.408;10.962;2023-05-07T05:53:29;28.00;;;18.98;;
45812;SDS011;31519;45.408;10.962;2023-05-07T05:55:57;22.27;;;17.65;;
45812;SDS011;31519;45.408;10.962;2023-05-07T05:58:26;29.83;;;17.23;;
45812;SDS011;31519;45.408;10.962;2023-05-07T06:03:31;26.80;;;16.67;;
45812;SDS011;31519;45.408;10.962;2023-05-07T06:06:04;31.10;;;16.63;;
45812;SDS011;31519;45.408;10.962;2023-05-07T06:08:32;22.00;;;16.48;;
45812;SDS011;31519;45.408;10.962;2023-05-07T06:11:01;20.58;;;16.38;;
45812;SDS011;31519;45.408;10.962;2023-05-07T06:13:31;21.25;;;17.13;;
45812;SDS011;31519;45.408;10.962;2023-05-07T06:16:00;22.55;;;16.52;;
45812;SDS011;31519;45.408;10.962;2023-05-07T06:18:29;22.77;;;15.50;;
45812;SDS011;31519;45.408;10.962;2023-05-07T06:20:58;22.95;;;16.70;;
45812;SDS011;31519;45.408;10.962;2023-05-07T06:23:31;23.17;;;16.83;;
45812;SDS011;31519;45.408;10.962;2023-05-07T06:26:01;26.30;;;17.13;;
45812;SDS011;31519;45.408;10.962;2023-05-07T06:28:35;20.98;;;15.05;;
45812;SDS011;31519;45.408;10.962;2023-05-07T06:31:14;24.55;;;15.88;;
45812;SDS011;31519;45.408;10.962;2023-05-07T06:33:51;31.40;;;17.35;;
45812;SDS011;31519;45.408;10.962;2023-05-07T06:36:23;122.32;;;20.77;;
45812;SDS011;31519;45.408;10.962;2023-05-07T06:38:55;19.30;;;16.58;;
45812;SDS011;31519;45.408;10.962;2023-05-07T06:41:22;27.10;;;15.63;;
45812;SDS011;31519;45.408;10.962;2023-05-07T06:43:51;24.65;;;14.75;;
45812;SDS011;31519;45.408;10.962;2023-05-07T06:46:44;20.55;;;14.70;;
45812;SDS011;31519;45.408;10.962;2023-05-07T06:49:14;31.52;;;16.00;;
45812;SDS011;31519;45.408;10.962;2023-05-07T06:51:42;20.75;;;14.65;;
45812;SDS011;31519;45.408;10.962;2023-05-07T06:54:11;22.10;;;14.18;;
45812;SDS011;31519;45.408;10.962;2023-05-07T06:56:41;18.10;;;14.32;;
45812;SDS011;31519;45.408;10.962;2023-05-07T06:59:09;23.20;;;14.63;;
45812;SDS011;31519;45.408;10.962;2023-05-07T07:01:40;20.02;;;14.00;;
45812;SDS011;31519;45.408;10.962;2023-05-07T07:04:10;20.02;;;15.00;;
45812;SDS011;31519;45.408;10.962;2023-05-07T07:06:40;18.30;;;14.75;;
45812;SDS011;31519;45.408;10.962;2023-05-07T07:09:11;33.50;;;16.15;;
45812;SDS011;31519;45.408;10.962;2023-05-07T07:11:40;21.27;;;15.70;;
45812;SDS011;31519;45.408;10.962;2023-05-07T07:14:08;28.33;;;17.02;;
45812;SDS011;31519;45.408;10.962;2023-05-07T07:16:44;22.00;;;15.80;;
45812;SDS011;31519;45.408;10.962;2023-05-07T07:19:12;26.20;;;16.90;;
45812;SDS011;31519;45.408;10.962;2023-05-07T07:21:43;28.08;;;16.63;;
45812;SDS011;31519;45.408;10.962;2023-05-07T07:24:13;23.25;;;17.30;;
45812;SDS011;31519;45.408;10.962;2023-05-07T07:26:48;18.75;;;16.30;;
45812;SDS011;31519;45.408;10.962;2023-05-07T07:29:17;23.55;;;17.08;;
45812;SDS011;31519;45.408;10.962;2023-05-07T07:31:47;27.25;;;17.80;;
45812;SDS011;31519;45.408;10.962;2023-05-07T07:34:19;28.10;;;18.15;;
45812;SDS011;31519;45.408;10.962;2023-05-07T07:36:48;22.42;;;17.50;;
45812;SDS011;31519;45.408;10.962;2023-05-07T07:39:18;23.13;;;15.85;;
45812;SDS011;31519;45.408;10.962;2023-05-07T07:41:49;24.90;;;17.33;;
45812;SDS011;31519;45.408;10.962;2023-05-07T07:44:19;25.90;;;17.92;;
45812;SDS011;31519;45.408;10.962;2023-05-07T07:46:52;27.80;;;15.85;;
45812;SDS011;31519;45.408;10.962;2023-05-07T07:49:22;22.60;;;16.17;;
45812;SDS011;31519;45.408;10.962;2023-05-07T07:51:51;24.42;;;16.95;;
45812;SDS011;31519;45.408;10.962;2023-05-07T07:54:19;23.02;;;15.32;;
45812;SDS011;31519;45.408;10.962;2023-05-07T07:56:47;19.17;;;14.77;;
45812;SDS011;31519;45.408;10.962;2023-05-07T07:59:16;22.05;;;15.45;;
45812;SDS011;31519;45.408;10.962;2023-05-07T08:01:48;24.25;;;14.63;;
45812;SDS011;31519;45.408;10.962;2023-05-07T08:04:21;23.35;;;15.30;;
45812;SDS011;31519;45.408;10.962;2023-05-07T08:06:49;16.60;;;14.75;;
45812;SDS011;31519;45.408;10.962;2023-05-07T08:09:18;19.30;;;14.02;;
45812;SDS011;31519;45.408;10.962;2023-05-07T08:11:47;20.45;;;14.10;;
45812;SDS011;31519;45.408;10.962;2023-05-07T08:14:15;22.88;;;15.55;;
45812;SDS011;31519;45.408;10.962;2023-05-07T08:16:46;22.45;;;14.52;;
45812;SDS011;31519;45.408;10.962;2023-05-07T08:19:15;20.45;;;14.45;;
45812;SDS011;31519;45.408;10.962;2023-05-07T08:21:44;20.05;;;14.40;;
45812;SDS011;31519;45.408;10.962;2023-05-07T08:24:17;24.17;;;15.95;;
45812;SDS011;31519;45.408;10.962;2023-05-07T08:26:46;23.35;;;14.63;;
45812;SDS011;31519;45.408;10.962;2023-05-07T08:29:15;15.45;;;12.00;;
45812;SDS011;31519;45.408;10.962;2023-05-07T08:31:43;19.60;;;12.25;;
45812;SDS011;31519;45.408;10.962;2023-05-07T08:34:12;17.67;;;12.38;;
45812;SDS011;31519;45.408;10.962;2023-05-07T08:36:43;18.02;;;12.20;;
45812;SDS011;31519;45.408;10.962;2023-05-07T08:39:15;19.02;;;13.35;;
45812;SDS011;31519;45.408;10.962;2023-05-07T08:41:46;20.35;;;13.90;;
45812;SDS011;31519;45.408;10.962;2023-05-07T08:44:16;24.02;;;13.90;;
45812;SDS011;31519;45.408;10.962;2023-05-07T08:46:50;24.52;;;16.08;;
45812;SDS011;31519;45.408;10.962;2023-05-07T08:49:24;21.95;;;15.55;;
45812;SDS011;31519;45.408;10.962;2023-05-07T08:51:52;31.38;;;16.02;;
45812;SDS011;31519;45.408;10.962;2023-05-07T08:54:22;20.13;;;15.63;;
45812;SDS011;31519;45.408;10.962;2023-05-07T08:56:51;18.23;;;14.68;;
45812;SDS011;31519;45.408;10.962;2023-05-07T08:59:21;27.95;;;15.13;;
45812;SDS011;31519;45.408;10.962;2023-05-07T09:01:49;19.33;;;15.43;;
45812;SDS011;31519;45.408;10.962;2023-05-07T09:04:32;18.85;;;15.15;;
45812;SDS011;31519;45.408;10.962;2023-05-07T09:07:02;21.75;;;15.68;;
45812;SDS011;31519;45.408;10.962;2023-05-07T09:09:37;24.98;;;14.57;;
45812;SDS011;31519;45.408;10.962;2023-05-07T09:12:06;18.85;;;12.20;;
45812;SDS011;31519;45.408;10.962;2023-05-07T09:14:36;25.08;;;12.98;;
45812;SDS011;31519;45.408;10.962;2023-05-07T09:17:04;18.13;;;13.93;;
45812;SDS011;31519;45.408;10.962;2023-05-07T09:19:32;25.35;;;13.85;;
45812;SDS011;31519;45.408;10.962;2023-05-07T09:22:05;16.08;;;12.60;;
45812;SDS011;31519;45.408;10.962;2023-05-07T09:24:47;22.50;;;13.95;;
45812;SDS011;31519;45.408;10.962;2023-05-07T09:27:19;24.50;;;14.90;;
45812;SDS011;31519;45.408;10.962;2023-05-07T09:29:47;26.08;;;14.80;;
45812;SDS011;31519;45.408;10.962;2023-05-07T09:32:16;24.33;;;13.88;;
45812;SDS011;31519;45.408;10.962;2023-05-07T09:34:44;16.63;;;13.98;;
45812;SDS011;31519;45.408;10.962;2023-05-07T09:37:17;18.38;;;13.27;;
45812;SDS011;31519;45.408;10.962;2023-05-07T09:39:47;19.10;;;15.18;;
45812;SDS011;31519;45.408;10.962;2023-05-07T09:42:24;21.92;;;13.30;;
45812;SDS011;31519;45.408;10.962;2023-05-07T09:44:57;15.23;;;12.50;;
45812;SDS011;31519;45.408;10.962;2023-05-07T09:47:32;18.08;;;13.02;;
45812;SDS011;31519;45.408;10.962;2023-05-07T09:50:06;21.77;;;11.32;;
45812;SDS011;31519;45.408;10.962;2023-05-07T09:52:39;18.45;;;11.38;;
45812;SDS011;31519;45.408;10.962;2023-05-07T09:55:10;15.45;;;12.43;;
45812;SDS011;31519;45.408;10.962;2023-05-07T09:57:41;17.95;;;11.65;;
45812;SDS011;31519;45.408;10.962;2023-05-07T10:00:11;21.45;;;10.68;;
45812;SDS011;31519;45.408;10.962;2023-05-07T10:02:51;15.65;;;12.15;;
45812;SDS011;31519;45.408;10.962;2023-05-07T10:05:32;17.10;;;13.27;;
45812;SDS011;31519;45.408;10.962;2023-05-07T10:08:02;19.42;;;14.00;;
45812;SDS011;31519;45.408;10.962;2023-05-07T10:10:34;20.20;;;14.43;;
45812;SDS011;31519;45.408;10.962;2023-05-07T10:13:05;22.60;;;13.40;;
45812;SDS011;31519;45.408;10.962;2023-05-07T10:15:41;21.63;;;13.32;;
45812;SDS011;31519;45.408;10.962;2023-05-07T10:18:10;18.08;;;13.95;;
45812;SDS011;31519;45.408;10.962;2023-05-07T10:20:41;17.55;;;14.18;;
45812;SDS011;31519;45.408;10.962;2023-05-07T10:23:14;18.73;;;13.20;;
45812;SDS011;31519;45.408;10.962;2023-05-07T10:25:54;18.27;;;13.15;;
45812;SDS011;31519;45.408;10.962;2023-05-07T10:28:30;22.25;;;13.73;;
45812;SDS011;31519;45.408;10.962;2023-05-07T10:34:16;18.77;;;14.18;;
45812;SDS011;31519;45.408;10.962;2023-05-07T10:36:54;18.13;;;13.77;;
45812;SDS011;31519;45.408;10.962;2023-05-07T10:39:24;21.30;;;14.13;;
45812;SDS011;31519;45.408;10.962;2023-05-07T10:41:53;16.05;;;12.20;;
45812;SDS011;31519;45.408;10.962;2023-05-07T10:44:29;18.00;;;11.93;;
45812;SDS011;31519;45.408;10.962;2023-05-07T10:47:08;16.60;;;12.43;;
45812;SDS011;31519;45.408;10.962;2023-05-07T11:01:06;18.98;;;10.88;;
45812;SDS011;31519;45.408;10.962;2023-05-07T11:15:13;16.40;;;12.00;;
45812;SDS011;31519;45.408;10.962;2023-05-07T11:17:54;14.70;;;12.55;;
45812;SDS011;31519;45.408;10.962;2023-05-07T11:26:19;11.68;;;9.52;;
45812;SDS011;31519;45.408;10.962;2023-05-07T11:28:49;18.13;;;9.13;;
45812;SDS011;31519;45.408;10.962;2023-05-07T11:31:21;15.48;;;10.48;;
45812;SDS011;31519;45.408;10.962;2023-05-07T11:33:53;14.23;;;9.95;;
45812;SDS011;31519;45.408;10.962;2023-05-07T11:36:22;12.30;;;8.93;;
45812;SDS011;31519;45.408;10.962;2023-05-07T11:38:54;15.98;;;9.18;;
45812;SDS011;31519;45.408;10.962;2023-05-07T11:41:22;15.60;;;8.70;;
45812;SDS011;31519;45.408;10.962;2023-05-07T11:43:54;13.45;;;10.10;;
45812;SDS011;31519;45.408;10.962;2023-05-07T11:46:24;13.85;;;8.90;;
45812;SDS011;31519;45.408;10.962;2023-05-07T11:48:52;14.05;;;8.85;;
45812;SDS011;31519;45.408;10.962;2023-05-07T11:51:22;11.95;;;8.68;;
45812;SDS011;31519;45.408;10.962;2023-05-07T11:53:52;15.32;;;9.50;;
45812;SDS011;31519;45.408;10.962;2023-05-07T11:56:20;10.80;;;7.50;;
45812;SDS011;31519;45.408;10.962;2023-05-07T11:58:48;10.68;;;7.68;;
45812;SDS011;31519;45.408;10.962;2023-05-07T12:01:16;14.70;;;7.75;;
45812;SDS011;31519;45.408;10.962;2023-05-07T12:03:46;8.30;;;7.30;;
45812;SDS011;31519;45.408;10.962;2023-05-07T12:06:14;9.50;;;7.68;;
45812;SDS011;31519;45.408;10.962;2023-05-07T12:08:45;13.30;;;8.77;;
45812;SDS011;31519;45.408;10.962;2023-05-07T12:11:16;10.50;;;7.88;;
45812;SDS011;31519;45.408;10.962;2023-05-07T12:13:51;9.85;;;7.82;;
45812;SDS011;31519;45.408;10.962;2023-05-07T12:16:25;12.02;;;7.93;;
45812;SDS011;31519;45.408;10.962;2023-05-07T12:18:55;11.60;;;7.85;;
45812;SDS011;31519;45.408;10.962;2023-05-07T12:21:26;10.80;;;8.70;;
45812;SDS011;31519;45.408;10.962;2023-05-07T12:23:55;9.35;;;7.15;;
45812;SDS011;31519;45.408;10.962;2023-05-07T12:26:23;9.65;;;7.38;;
45812;SDS011;31519;45.408;10.962;2023-05-07T12:28:52;6.25;;;5.65;;
45812;SDS011;31519;45.408;10.962;2023-05-07T12:31:20;13.15;;;7.38;;
45812;SDS011;31519;45.408;10.962;2023-05-07T12:33:49;10.00;;;7.07;;
45812;SDS011;31519;45.408;10.962;2023-05-07T12:36:17;11.43;;;6.68;;
45812;SDS011;31519;45.408;10.962;2023-05-07T12:38:46;11.18;;;8.85;;
45812;SDS011;31519;45.408;10.962;2023-05-07T12:41:17;10.93;;;7.15;;
45812;SDS011;31519;45.408;10.962;2023-05-07T12:43:46;10.38;;;5.95;;
45812;SDS011;31519;45.408;10.962;2023-05-07T12:46:14;8.98;;;5.50;;
45812;SDS011;31519;45.408;10.962;2023-05-07T12:48:45;11.50;;;5.95;;
45812;SDS011;31519;45.408;10.962;2023-05-07T12:51:13;10.75;;;5.38;;
45812;SDS011;31519;45.408;10.962;2023-05-07T12:53:43;9.10;;;6.13;;
45812;SDS011;31519;45.408;10.962;2023-05-07T12:56:11;9.50;;;5.28;;
45812;SDS011;31519;45.408;10.962;2023-05-07T12:58:43;8.50;;;5.47;;
45812;SDS011;31519;45.408;10.962;2023-05-07T13:01:11;5.35;;;4.32;;
45812;SDS011;31519;45.408;10.962;2023-05-07T13:03:47;8.05;;;5.03;;
45812;SDS011;31519;45.408;10.962;2023-05-07T13:06:19;7.68;;;4.68;;
45812;SDS011;31519;45.408;10.962;2023-05-07T13:08:47;5.85;;;4.75;;
45812;SDS011;31519;45.408;10.962;2023-05-07T13:11:15;8.60;;;5.70;;
45812;SDS011;31519;45.408;10.962;2023-05-07T13:13:43;7.97;;;4.90;;
45812;SDS011;31519;45.408;10.962;2023-05-07T13:16:12;9.50;;;5.03;;
45812;SDS011;31519;45.408;10.962;2023-05-07T13:18:40;5.85;;;5.15;;
45812;SDS011;31519;45.408;10.962;2023-05-07T13:21:11;15.85;;;5.13;;
45812;SDS011;31519;45.408;10.962;2023-05-07T13:23:41;8.93;;;4.43;;
45812;SDS011;31519;45.408;10.962;2023-05-07T13:26:09;11.18;;;4.63;;
45812;SDS011;31519;45.408;10.962;2023-05-07T13:28:53;7.22;;;6.53;;
45812;SDS011;31519;45.408;10.962;2023-05-07T13:31:22;10.55;;;5.18;;
45812;SDS011;31519;45.408;10.962;2023-05-07T13:33:50;11.88;;;4.95;;
45812;SDS011;31519;45.408;10.962;2023-05-07T13:36:20;5.60;;;4.47;;
45812;SDS011;31519;45.408;10.962;2023-05-07T13:38:48;6.10;;;4.53;;
45812;SDS011;31519;45.408;10.962;2023-05-07T13:41:17;9.63;;;4.25;;
45812;SDS011;31519;45.408;10.962;2023-05-07T13:43:46;8.10;;;4.47;;
45812;SDS011;31519;45.408;10.962;2023-05-07T13:46:14;10.30;;;4.70;;
45812;SDS011;31519;45.408;10.962;2023-05-07T13:48:44;7.97;;;6.55;;
45812;SDS011;31519;45.408;10.962;2023-05-07T13:51:12;10.52;;;5.07;;
45812;SDS011;31519;45.408;10.962;2023-05-07T13:53:40;5.72;;;4.50;;
45812;SDS011;31519;45.408;10.962;2023-05-07T13:56:08;8.07;;;4.75;;
45812;SDS011;31519;45.408;10.962;2023-05-07T13:58:36;8.82;;;5.18;;
45812;SDS011;31519;45.408;10.962;2023-05-07T14:01:25;10.90;;;4.70;;
45812;SDS011;31519;45.408;10.962;2023-05-07T14:03:53;5.03;;;4.00;;
45812;SDS011;31519;45.408;10.962;2023-05-07T14:06:21;6.88;;;4.05;;
45812;SDS011;31519;45.408;10.962;2023-05-07T14:08:49;8.18;;;5.10;;
45812;SDS011;31519;45.408;10.962;2023-05-07T14:11:18;8.07;;;5.30;;
45812;SDS011;31519;45.408;10.962;2023-05-07T14:13:46;6.53;;;4.90;;
45812;SDS011;31519;45.408;10.962;2023-05-07T14:16:15;7.63;;;3.58;;
45812;SDS011;31519;45.408;10.962;2023-05-07T14:18:43;6.10;;;4.97;;
45812;SDS011;31519;45.408;10.962;2023-05-07T14:21:11;4.50;;;4.10;;
45812;SDS011;31519;45.408;10.962;2023-05-07T14:23:39;9.20;;;5.47;;
45812;SDS011;31519;45.408;10.962;2023-05-07T14:26:08;4.82;;;4.43;;
45812;SDS011;31519;45.408;10.962;2023-05-07T14:28:36;6.95;;;4.15;;
45812;SDS011;31519;45.408;10.962;2023-05-07T14:31:07;11.00;;;4.65;;
45812;SDS011;31519;45.408;10.962;2023-05-07T14:33:35;6.90;;;4.90;;
45812;SDS011;31519;45.408;10.962;2023-05-07T14:36:05;5.28;;;4.78;;
45812;SDS011;31519;45.408;10.962;2023-05-07T14:38:34;6.40;;;4.50;;
45812;SDS011;31519;45.408;10.962;2023-05-07T14:41:02;7.18;;;4.85;;
45812;SDS011;31519;45.408;10.962;2023-05-07T14:43:30;15.10;;;5.43;;
45812;SDS011;31519;45.408;10.962;2023-05-07T14:45:58;5.60;;;4.38;;
45812;SDS011;31519;45.408;10.962;2023-05-07T14:48:27;13.50;;;6.47;;
45812;SDS011;31519;45.408;10.962;2023-05-07T14:50:55;6.15;;;5.00;;
45812;SDS011;31519;45.408;10.962;2023-05-07T14:53:24;6.18;;;4.70;;
45812;SDS011;31519;45.408;10.962;2023-05-07T14:55:52;6.72;;;4.72;;
45812;SDS011;31519;45.408;10.962;2023-05-07T14:58:21;6.40;;;5.72;;
45812;SDS011;31519;45.408;10.962;2023-05-07T15:00:49;6.53;;;4.53;;
45812;SDS011;31519;45.408;10.962;2023-05-07T15:03:17;6.13;;;5.53;;
45812;SDS011;31519;45.408;10.962;2023-05-07T15:05:45;7.55;;;4.55;;
45812;SDS011;31519;45.408;10.962;2023-05-07T15:08:14;9.48;;;6.03;;